sensor_id;sensor_type;location;lat;lon;timestamp;P1;durP1;ratioP1;P2;durP2;ratioP2
27893;SDS011;15240;50.812;4.792;2024-01-30T00:01:46;11.13;;;7.10;;
27893;SDS011;15240;50.812;4.792;2024-01-30T00:04:12;10.10;;;6.80;;
27893;SDS011;15240;50.812;4.792;2024-01-30T00:06:38;10.60;;;7.20;;
27893;SDS011;15240;50.812;4.792;2024-01-30T00:09:05;9.33;;;7.13;;
27893;SDS011;15240;50.812;4.792;2024-01-30T00:11:31;11.03;;;7.60;;
27893;SDS011;15240;50.812;4.792;2024-01-30T00:13:59;11.13;;;6.80;;
27893;SDS011;15240;50.812;4.792;2024-01-30T00:16:25;11.10;;;7.50;;
27893;SDS011;15240;50.812;4.792;2024-01-30T00:18:51;12.33;;;7.30;;
27893;SDS011;15240;50.812;4.792;2024-01-30T00:21:18;9.23;;;7.00;;
27893;SDS011;15240;50.812;4.792;2024-01-30T00:23:44;12.57;;;7.37;;
27893;SDS011;15240;50.812;4.792;2024-01-30T00:26:10;9.70;;;7.00;;
27893;SDS011;15240;50.812;4.792;2024-01-30T00:28:37;10.67;;;7.37;;
27893;SDS011;15240;50.812;4.792;2024-01-30T00:31:03;10.40;;;6.90;;
27893;SDS011;15240;50.812;4.792;2024-01-30T00:33:30;9.23;;;6.67;;
27893;SDS011;15240;50.812;4.792;2024-01-30T00:35:56;10.17;;;7.03;;
27893;SDS011;15240;50.812;4.792;2024-01-30T00:38:22;11.63;;;6.60;;
27893;SDS011;15240;50.812;4.792;2024-01-30T00:40:49;9.80;;;6.67;;
27893;SDS011;15240;50.812;4.792;2024-01-30T00:43:15;11.83;;;6.13;;
27893;SDS011;15240;50.812;4.792;2024-01-30T00:45:43;8.97;;;6.37;;
27893;SDS011;15240;50.812;4.792;2024-01-30T00:48:09;11.03;;;6.50;;
27893;SDS011;15240;50.812;4.792;2024-01-30T00:50:35;10.20;;;7.10;;
27893;SDS011;15240;50.812;4.792;2024-01-30T00:53:01;9.17;;;6.23;;
27893;SDS011;15240;50.812;4.792;2024-01-30T00:55:28;8.67;;;6.00;;
27893;SDS011;15240;50.812;4.792;2024-01-30T00:57:55;11.17;;;6.33;;
27893;SDS011;15240;50.812;4.792;2024-01-30T01:00:21;10.60;;;6.73;;
27893;SDS011;15240;50.812;4.792;2024-01-30T01:02:53;11.47;;;6.70;;
27893;SDS011;15240;50.812;4.792;2024-01-30T01:05:20;9.47;;;6.63;;
27893;SDS011;15240;50.812;4.792;2024-01-30T01:07:46;9.23;;;6.97;;
27893;SDS011;15240;50.812;4.792;2024-01-30T01:10:16;11.60;;;6.80;;
27893;SDS011;15240;50.812;4.792;2024-01-30T01:12:43;11.07;;;6.50;;
27893;SDS011;15240;50.812;4.792;2024-01-30T01:15:09;10.87;;;6.93;;
27893;SDS011;15240;50.812;4.792;2024-01-30T01:17:36;11.40;;;6.83;;
27893;SDS011;15240;50.812;4.792;2024-01-30T01:20:02;11.20;;;6.47;;
27893;SDS011;15240;50.812;4.792;2024-01-30T01:22:30;9.30;;;6.40;;
27893;SDS011;15240;50.812;4.792;2024-01-30T01:24:57;11.30;;;6.43;;
27893;SDS011;15240;50.812;4.792;2024-01-30T01:27:23;11.40;;;6.50;;
27893;SDS011;15240;50.812;4.792;2024-01-30T01:29:51;11.10;;;6.67;;
27893;SDS011;15240;50.812;4.792;2024-01-30T01:32:17;10.87;;;6.77;;
27893;SDS011;15240;50.812;4.792;2024-01-30T01:34:44;8.87;;;6.17;;
27893;SDS011;15240;50.812;4.792;2024-01-30T01:37:10;9.10;;;6.20;;
27893;SDS011;15240;50.812;4.792;2024-01-30T01:39:36;10.00;;;6.57;;
27893;SDS011;15240;50.812;4.792;2024-01-30T01:42:02;9.60;;;6.27;;
27893;SDS011;15240;50.812;4.792;2024-01-30T01:44:28;10.27;;;6.80;;
27893;SDS011;15240;50.812;4.792;2024-01-30T01:46:54;12.13;;;6.53;;
27893;SDS011;15240;50.812;4.792;2024-01-30T01:49:23;8.63;;;6.13;;
27893;SDS011;15240;50.812;4.792;2024-01-30T01:51:50;10.87;;;6.93;;
27893;SDS011;15240;50.812;4.792;2024-01-30T01:54:17;10.43;;;6.47;;
27893;SDS011;15240;50.812;4.792;2024-01-30T01:56:43;11.73;;;6.50;;
27893;SDS011;15240;50.812;4.792;2024-01-30T01:59:10;10.97;;;6.40;;
27893;SDS011;15240;50.812;4.792;2024-01-30T02:01:36;11.80;;;7.33;;
27893;SDS011;15240;50.812;4.792;2024-01-30T02:04:03;12.23;;;7.43;;
27893;SDS011;15240;50.812;4.792;2024-01-30T02:06:29;12.17;;;6.50;;
27893;SDS011;15240;50.812;4.792;2024-01-30T02:08:55;9.77;;;6.60;;
27893;SDS011;15240;50.812;4.792;2024-01-30T02:11:22;9.67;;;6.43;;
27893;SDS011;15240;50.812;4.792;2024-01-30T02:13:50;10.23;;;6.47;;
27893;SDS011;15240;50.812;4.792;2024-01-30T02:16:17;11.97;;;6.37;;
27893;SDS011;15240;50.812;4.792;2024-01-30T02:18:43;14.17;;;7.00;;
27893;SDS011;15240;50.812;4.792;2024-01-30T02:21:11;12.93;;;6.97;;
27893;SDS011;15240;50.812;4.792;2024-01-30T02:23:38;13.77;;;6.33;;
27893;SDS011;15240;50.812;4.792;2024-01-30T02:26:05;14.03;;;7.13;;
27893;SDS011;15240;50.812;4.792;2024-01-30T02:28:34;12.53;;;6.87;;
27893;SDS011;15240;50.812;4.792;2024-01-30T02:31:00;11.23;;;7.47;;
27893;SDS011;15240;50.812;4.792;2024-01-30T02:33:26;11.60;;;6.40;;
27893;SDS011;15240;50.812;4.792;2024-01-30T02:35:52;9.13;;;6.87;;
27893;SDS011;15240;50.812;4.792;2024-01-30T02:38:19;10.33;;;6.53;;
27893;SDS011;15240;50.812;4.792;2024-01-30T02:40:45;9.87;;;6.90;;
27893;SDS011;15240;50.812;4.792;2024-01-30T02:43:32;13.07;;;7.23;;
27893;SDS011;15240;50.812;4.792;2024-01-30T02:45:58;10.67;;;6.70;;
27893;SDS011;15240;50.812;4.792;2024-01-30T02:48:26;10.83;;;6.23;;
27893;SDS011;15240;50.812;4.792;2024-01-30T02:50:52;9.23;;;6.57;;
27893;SDS011;15240;50.812;4.792;2024-01-30T02:53:19;8.97;;;6.40;;
27893;SDS011;15240;50.812;4.792;2024-01-30T02:55:46;9.43;;;6.10;;
27893;SDS011;15240;50.812;4.792;2024-01-30T02:58:13;11.50;;;6.10;;
27893;SDS011;15240;50.812;4.792;2024-01-30T03:00:39;10.73;;;6.23;;
27893;SDS011;15240;50.812;4.792;2024-01-30T03:03:05;11.13;;;6.37;;
27893;SDS011;15240;50.812;4.792;2024-01-30T03:05:31;12.07;;;6.20;;
27893;SDS011;15240;50.812;4.792;2024-01-30T03:08:00;11.03;;;6.10;;
27893;SDS011;15240;50.812;4.792;2024-01-30T03:10:26;9.57;;;6.37;;
27893;SDS011;15240;50.812;4.792;2024-01-30T03:12:53;9.57;;;6.07;;
27893;SDS011;15240;50.812;4.792;2024-01-30T03:15:21;8.13;;;5.83;;
27893;SDS011;15240;50.812;4.792;2024-01-30T03:17:48;10.03;;;5.83;;
27893;SDS011;15240;50.812;4.792;2024-01-30T03:20:14;10.63;;;5.90;;
27893;SDS011;15240;50.812;4.792;2024-01-30T03:22:41;11.23;;;5.93;;
27893;SDS011;15240;50.812;4.792;2024-01-30T03:25:08;8.90;;;5.50;;
27893;SDS011;15240;50.812;4.792;2024-01-30T03:27:34;9.37;;;5.87;;
27893;SDS011;15240;50.812;4.792;2024-01-30T03:30:01;9.20;;;5.93;;
27893;SDS011;15240;50.812;4.792;2024-01-30T03:32:27;8.63;;;5.90;;
27893;SDS011;15240;50.812;4.792;2024-01-30T03:34:54;10.23;;;6.60;;
27893;SDS011;15240;50.812;4.792;2024-01-30T03:37:20;10.10;;;6.00;;
27893;SDS011;15240;50.812;4.792;2024-01-30T03:39:46;8.20;;;5.70;;
27893;SDS011;15240;50.812;4.792;2024-01-30T03:42:12;9.47;;;6.33;;
27893;SDS011;15240;50.812;4.792;2024-01-30T03:44:38;8.27;;;5.77;;
27893;SDS011;15240;50.812;4.792;2024-01-30T03:47:05;9.50;;;6.33;;
27893;SDS011;15240;50.812;4.792;2024-01-30T03:49:31;10.60;;;5.90;;
27893;SDS011;15240;50.812;4.792;2024-01-30T03:51:57;9.00;;;6.03;;
27893;SDS011;15240;50.812;4.792;2024-01-30T03:54:23;9.90;;;6.07;;
27893;SDS011;15240;50.812;4.792;2024-01-30T03:56:50;7.13;;;5.80;;
27893;SDS011;15240;50.812;4.792;2024-01-30T03:59:16;9.33;;;6.13;;
27893;SDS011;15240;50.812;4.792;2024-01-30T04:01:48;8.90;;;6.37;;
27893;SDS011;15240;50.812;4.792;2024-01-30T04:04:15;10.53;;;5.73;;
27893;SDS011;15240;50.812;4.792;2024-01-30T04:06:42;10.00;;;6.57;;
27893;SDS011;15240;50.812;4.792;2024-01-30T04:09:08;9.93;;;6.10;;
27893;SDS011;15240;50.812;4.792;2024-01-30T04:11:37;11.20;;;6.57;;
27893;SDS011;15240;50.812;4.792;2024-01-30T04:14:04;8.67;;;6.13;;
27893;SDS011;15240;50.812;4.792;2024-01-30T04:16:30;8.47;;;5.83;;
27893;SDS011;15240;50.812;4.792;2024-01-30T04:18:56;10.37;;;5.77;;
27893;SDS011;15240;50.812;4.792;2024-01-30T04:21:22;9.53;;;6.00;;
27893;SDS011;15240;50.812;4.792;2024-01-30T04:23:48;10.80;;;6.13;;
27893;SDS011;15240;50.812;4.792;2024-01-30T04:26:14;9.57;;;5.73;;
27893;SDS011;15240;50.812;4.792;2024-01-30T04:28:46;8.97;;;5.90;;
27893;SDS011;15240;50.812;4.792;2024-01-30T04:31:13;11.83;;;6.20;;
27893;SDS011;15240;50.812;4.792;2024-01-30T04:33:39;10.30;;;5.90;;
27893;SDS011;15240;50.812;4.792;2024-01-30T04:36:08;10.23;;;6.20;;
27893;SDS011;15240;50.812;4.792;2024-01-30T04:38:39;11.17;;;6.53;;
27893;SDS011;15240;50.812;4.792;2024-01-30T04:41:06;7.23;;;5.50;;
27893;SDS011;15240;50.812;4.792;2024-01-30T04:43:32;9.70;;;6.40;;
27893;SDS011;15240;50.812;4.792;2024-01-30T04:45:58;9.60;;;6.47;;
27893;SDS011;15240;50.812;4.792;2024-01-30T04:48:24;10.00;;;5.97;;
27893;SDS011;15240;50.812;4.792;2024-01-30T04:50:51;9.87;;;6.30;;
27893;SDS011;15240;50.812;4.792;2024-01-30T04:53:17;9.27;;;6.20;;
27893;SDS011;15240;50.812;4.792;2024-01-30T04:55:44;12.00;;;6.17;;
27893;SDS011;15240;50.812;4.792;2024-01-30T04:58:10;8.17;;;5.70;;
27893;SDS011;15240;50.812;4.792;2024-01-30T05:00:36;8.37;;;6.43;;
27893;SDS011;15240;50.812;4.792;2024-01-30T05:03:02;9.40;;;6.30;;
27893;SDS011;15240;50.812;4.792;2024-01-30T05:05:29;11.60;;;6.17;;
27893;SDS011;15240;50.812;4.792;2024-01-30T05:07:55;8.33;;;6.20;;
27893;SDS011;15240;50.812;4.792;2024-01-30T05:10:21;10.83;;;6.73;;
27893;SDS011;15240;50.812;4.792;2024-01-30T05:12:47;11.73;;;6.83;;
27893;SDS011;15240;50.812;4.792;2024-01-30T05:15:13;10.10;;;7.00;;
27893;SDS011;15240;50.812;4.792;2024-01-30T05:17:39;11.10;;;6.83;;
27893;SDS011;15240;50.812;4.792;2024-01-30T05:20:05;10.23;;;7.17;;
27893;SDS011;15240;50.812;4.792;2024-01-30T05:22:32;11.70;;;6.90;;
27893;SDS011;15240;50.812;4.792;2024-01-30T05:25:01;12.13;;;6.80;;
27893;SDS011;15240;50.812;4.792;2024-01-30T05:27:30;9.23;;;6.00;;
27893;SDS011;15240;50.812;4.792;2024-01-30T05:30:17;10.43;;;6.90;;
27893;SDS011;15240;50.812;4.792;2024-01-30T05:32:43;9.73;;;6.93;;
27893;SDS011;15240;50.812;4.792;2024-01-30T05:35:09;11.20;;;6.90;;
27893;SDS011;15240;50.812;4.792;2024-01-30T05:37:41;11.27;;;7.13;;
27893;SDS011;15240;50.812;4.792;2024-01-30T05:40:07;11.80;;;7.53;;
27893;SDS011;15240;50.812;4.792;2024-01-30T05:42:33;12.27;;;7.07;;
27893;SDS011;15240;50.812;4.792;2024-01-30T05:44:59;12.43;;;7.33;;
27893;SDS011;15240;50.812;4.792;2024-01-30T05:47:25;11.57;;;7.80;;
27893;SDS011;15240;50.812;4.792;2024-01-30T05:49:51;11.80;;;7.17;;
27893;SDS011;15240;50.812;4.792;2024-01-30T05:52:18;10.27;;;7.10;;
27893;SDS011;15240;50.812;4.792;2024-01-30T05:54:44;11.30;;;6.73;;
27893;SDS011;15240;50.812;4.792;2024-01-30T05:57:10;11.77;;;6.80;;
27893;SDS011;15240;50.812;4.792;2024-01-30T05:59:36;11.80;;;6.17;;
27893;SDS011;15240;50.812;4.792;2024-01-30T06:02:03;11.43;;;6.97;;
27893;SDS011;15240;50.812;4.792;2024-01-30T06:04:29;9.77;;;6.37;;
27893;SDS011;15240;50.812;4.792;2024-01-30T06:06:55;9.57;;;6.57;;
27893;SDS011;15240;50.812;4.792;2024-01-30T06:09:21;10.20;;;6.97;;
27893;SDS011;15240;50.812;4.792;2024-01-30T06:11:47;12.47;;;7.10;;
27893;SDS011;15240;50.812;4.792;2024-01-30T06:14:14;8.83;;;7.10;;
27893;SDS011;15240;50.812;4.792;2024-01-30T06:16:40;12.60;;;7.33;;
27893;SDS011;15240;50.812;4.792;2024-01-30T06:19:06;11.40;;;7.03;;
27893;SDS011;15240;50.812;4.792;2024-01-30T06:21:32;12.73;;;6.97;;
27893;SDS011;15240;50.812;4.792;2024-01-30T06:24:01;12.83;;;7.07;;
27893;SDS011;15240;50.812;4.792;2024-01-30T06:26:27;11.50;;;7.40;;
27893;SDS011;15240;50.812;4.792;2024-01-30T06:28:53;12.00;;;7.10;;
27893;SDS011;15240;50.812;4.792;2024-01-30T06:31:19;12.70;;;7.43;;
27893;SDS011;15240;50.812;4.792;2024-01-30T06:33:49;11.47;;;7.20;;
27893;SDS011;15240;50.812;4.792;2024-01-30T06:36:15;11.93;;;6.73;;
27893;SDS011;15240;50.812;4.792;2024-01-30T06:38:41;9.97;;;6.53;;
27893;SDS011;15240;50.812;4.792;2024-01-30T06:41:07;11.57;;;7.03;;
27893;SDS011;15240;50.812;4.792;2024-01-30T06:43:33;8.57;;;6.57;;
27893;SDS011;15240;50.812;4.792;2024-01-30T06:45:59;12.43;;;7.30;;
27893;SDS011;15240;50.812;4.792;2024-01-30T06:48:25;11.80;;;7.20;;
27893;SDS011;15240;50.812;4.792;2024-01-30T06:50:55;13.20;;;7.07;;
27893;SDS011;15240;50.812;4.792;2024-01-30T06:53:22;10.60;;;7.50;;
27893;SDS011;15240;50.812;4.792;2024-01-30T06:55:48;12.70;;;7.87;;
27893;SDS011;15240;50.812;4.792;2024-01-30T06:58:14;9.93;;;7.10;;
27893;SDS011;15240;50.812;4.792;2024-01-30T07:00:40;11.63;;;7.20;;
27893;SDS011;15240;50.812;4.792;2024-01-30T07:03:06;12.00;;;7.33;;
27893;SDS011;15240;50.812;4.792;2024-01-30T07:05:32;11.63;;;7.37;;
27893;SDS011;15240;50.812;4.792;2024-01-30T07:07:58;14.63;;;7.63;;
27893;SDS011;15240;50.812;4.792;2024-01-30T07:10:24;13.67;;;7.70;;
27893;SDS011;15240;50.812;4.792;2024-01-30T07:12:51;10.87;;;7.43;;
27893;SDS011;15240;50.812;4.792;2024-01-30T07:15:17;9.93;;;7.27;;
27893;SDS011;15240;50.812;4.792;2024-01-30T07:17:45;11.20;;;7.30;;
27893;SDS011;15240;50.812;4.792;2024-01-30T07:20:11;11.57;;;8.17;;
27893;SDS011;15240;50.812;4.792;2024-01-30T07:22:38;12.10;;;8.27;;
27893;SDS011;15240;50.812;4.792;2024-01-30T07:25:04;14.93;;;8.50;;
27893;SDS011;15240;50.812;4.792;2024-01-30T07:27:30;10.70;;;7.90;;
27893;SDS011;15240;50.812;4.792;2024-01-30T07:29:56;13.10;;;8.70;;
27893;SDS011;15240;50.812;4.792;2024-01-30T07:32:22;13.03;;;8.90;;
27893;SDS011;15240;50.812;4.792;2024-01-30T07:34:49;15.07;;;8.30;;
27893;SDS011;15240;50.812;4.792;2024-01-30T07:37:15;13.87;;;8.87;;
27893;SDS011;15240;50.812;4.792;2024-01-30T07:39:41;13.40;;;8.43;;
27893;SDS011;15240;50.812;4.792;2024-01-30T07:42:08;16.43;;;8.77;;
27893;SDS011;15240;50.812;4.792;2024-01-30T07:44:34;15.37;;;9.50;;
27893;SDS011;15240;50.812;4.792;2024-01-30T07:47:00;12.73;;;8.43;;
27893;SDS011;15240;50.812;4.792;2024-01-30T07:49:26;14.07;;;9.23;;
27893;SDS011;15240;50.812;4.792;2024-01-30T07:51:52;14.47;;;8.50;;
27893;SDS011;15240;50.812;4.792;2024-01-30T07:54:18;15.07;;;8.93;;
27893;SDS011;15240;50.812;4.792;2024-01-30T07:56:44;13.30;;;8.90;;
27893;SDS011;15240;50.812;4.792;2024-01-30T07:59:11;17.07;;;9.03;;
27893;SDS011;15240;50.812;4.792;2024-01-30T08:01:37;12.47;;;8.27;;
27893;SDS011;15240;50.812;4.792;2024-01-30T08:04:03;13.50;;;8.40;;
27893;SDS011;15240;50.812;4.792;2024-01-30T08:06:29;16.77;;;8.60;;
27893;SDS011;15240;50.812;4.792;2024-01-30T08:08:55;16.03;;;8.40;;
27893;SDS011;15240;50.812;4.792;2024-01-30T08:11:24;13.57;;;8.47;;
27893;SDS011;15240;50.812;4.792;2024-01-30T08:13:54;15.97;;;8.90;;
27893;SDS011;15240;50.812;4.792;2024-01-30T08:16:20;14.10;;;9.40;;
27893;SDS011;15240;50.812;4.792;2024-01-30T08:18:46;16.00;;;8.97;;
27893;SDS011;15240;50.812;4.792;2024-01-30T08:21:13;14.83;;;9.13;;
27893;SDS011;15240;50.812;4.792;2024-01-30T08:23:39;16.70;;;8.73;;
27893;SDS011;15240;50.812;4.792;2024-01-30T08:26:07;12.87;;;8.57;;
27893;SDS011;15240;50.812;4.792;2024-01-30T08:28:33;13.13;;;8.87;;
27893;SDS011;15240;50.812;4.792;2024-01-30T08:30:59;15.97;;;8.77;;
27893;SDS011;15240;50.812;4.792;2024-01-30T08:33:25;16.50;;;9.30;;
27893;SDS011;15240;50.812;4.792;2024-01-30T08:35:51;13.60;;;8.10;;
27893;SDS011;15240;50.812;4.792;2024-01-30T08:38:17;15.07;;;8.60;;
27893;SDS011;15240;50.812;4.792;2024-01-30T08:40:43;13.07;;;8.10;;
27893;SDS011;15240;50.812;4.792;2024-01-30T08:43:10;13.93;;;8.27;;
27893;SDS011;15240;50.812;4.792;2024-01-30T08:45:36;13.23;;;8.20;;
27893;SDS011;15240;50.812;4.792;2024-01-30T08:48:02;14.37;;;8.03;;
27893;SDS011;15240;50.812;4.792;2024-01-30T08:50:29;17.47;;;8.40;;
27893;SDS011;15240;50.812;4.792;2024-01-30T08:52:55;12.27;;;8.80;;
27893;SDS011;15240;50.812;4.792;2024-01-30T08:55:22;14.13;;;8.47;;
27893;SDS011;15240;50.812;4.792;2024-01-30T08:57:48;12.37;;;8.67;;
27893;SDS011;15240;50.812;4.792;2024-01-30T09:00:14;16.87;;;8.63;;
27893;SDS011;15240;50.812;4.792;2024-01-30T09:02:40;13.93;;;8.40;;
27893;SDS011;15240;50.812;4.792;2024-01-30T09:05:06;16.63;;;9.27;;
27893;SDS011;15240;50.812;4.792;2024-01-30T09:07:32;14.53;;;8.37;;
27893;SDS011;15240;50.812;4.792;2024-01-30T09:09:58;17.50;;;8.57;;
27893;SDS011;15240;50.812;4.792;2024-01-30T09:12:24;16.60;;;8.87;;
27893;SDS011;15240;50.812;4.792;2024-01-30T09:14:50;15.50;;;8.47;;
27893;SDS011;15240;50.812;4.792;2024-01-30T09:17:19;16.20;;;9.00;;
27893;SDS011;15240;50.812;4.792;2024-01-30T09:19:45;17.13;;;8.87;;
27893;SDS011;15240;50.812;4.792;2024-01-30T09:22:12;14.30;;;8.53;;
27893;SDS011;15240;50.812;4.792;2024-01-30T09:24:38;11.77;;;8.17;;
27893;SDS011;15240;50.812;4.792;2024-01-30T09:27:04;15.53;;;8.53;;
27893;SDS011;15240;50.812;4.792;2024-01-30T09:29:30;15.77;;;8.33;;
27893;SDS011;15240;50.812;4.792;2024-01-30T09:31:58;17.27;;;8.70;;
27893;SDS011;15240;50.812;4.792;2024-01-30T09:34:24;17.63;;;8.83;;
27893;SDS011;15240;50.812;4.792;2024-01-30T09:36:50;19.07;;;8.63;;
27893;SDS011;15240;50.812;4.792;2024-01-30T09:39:16;12.53;;;8.33;;
27893;SDS011;15240;50.812;4.792;2024-01-30T09:41:45;13.73;;;9.03;;
27893;SDS011;15240;50.812;4.792;2024-01-30T09:44:15;15.50;;;8.90;;
27893;SDS011;15240;50.812;4.792;2024-01-30T09:46:41;14.83;;;9.33;;
27893;SDS011;15240;50.812;4.792;2024-01-30T09:49:08;16.73;;;8.80;;
27893;SDS011;15240;50.812;4.792;2024-01-30T09:51:34;15.70;;;9.40;;
27893;SDS011;15240;50.812;4.792;2024-01-30T09:54:01;14.50;;;8.47;;
27893;SDS011;15240;50.812;4.792;2024-01-30T09:56:28;16.50;;;8.63;;
27893;SDS011;15240;50.812;4.792;2024-01-30T09:58:54;19.73;;;9.70;;
27893;SDS011;15240;50.812;4.792;2024-01-30T10:01:20;15.23;;;8.90;;
27893;SDS011;15240;50.812;4.792;2024-01-30T10:03:47;15.70;;;9.00;;
27893;SDS011;15240;50.812;4.792;2024-01-30T10:06:13;16.93;;;8.40;;
27893;SDS011;15240;50.812;4.792;2024-01-30T10:08:41;17.80;;;8.93;;
27893;SDS011;15240;50.812;4.792;2024-01-30T10:11:07;14.23;;;9.00;;
27893;SDS011;15240;50.812;4.792;2024-01-30T10:13:34;16.43;;;8.97;;
27893;SDS011;15240;50.812;4.792;2024-01-30T10:16:00;15.07;;;8.93;;
27893;SDS011;15240;50.812;4.792;2024-01-30T10:18:28;17.87;;;9.57;;
27893;SDS011;15240;50.812;4.792;2024-01-30T10:20:54;16.03;;;9.77;;
27893;SDS011;15240;50.812;4.792;2024-01-30T10:23:20;16.33;;;9.50;;
27893;SDS011;15240;50.812;4.792;2024-01-30T10:25:46;18.67;;;9.27;;
27893;SDS011;15240;50.812;4.792;2024-01-30T10:28:12;18.97;;;9.67;;
27893;SDS011;15240;50.812;4.792;2024-01-30T10:30:39;16.10;;;9.30;;
27893;SDS011;15240;50.812;4.792;2024-01-30T10:33:05;15.20;;;9.47;;
27893;SDS011;15240;50.812;4.792;2024-01-30T10:35:31;16.03;;;9.63;;
27893;SDS011;15240;50.812;4.792;2024-01-30T10:37:58;20.27;;;9.90;;
27893;SDS011;15240;50.812;4.792;2024-01-30T10:40:27;19.57;;;10.17;;
27893;SDS011;15240;50.812;4.792;2024-01-30T10:42:54;17.90;;;10.00;;
27893;SDS011;15240;50.812;4.792;2024-01-30T10:45:21;19.30;;;9.73;;
27893;SDS011;15240;50.812;4.792;2024-01-30T10:47:52;17.83;;;9.70;;
27893;SDS011;15240;50.812;4.792;2024-01-30T10:50:19;16.33;;;10.23;;
27893;SDS011;15240;50.812;4.792;2024-01-30T10:52:45;17.97;;;10.00;;
27893;SDS011;15240;50.812;4.792;2024-01-30T10:55:12;20.23;;;10.87;;
27893;SDS011;15240;50.812;4.792;2024-01-30T10:57:39;17.83;;;11.40;;
27893;SDS011;15240;50.812;4.792;2024-01-30T11:00:09;19.80;;;11.93;;
27893;SDS011;15240;50.812;4.792;2024-01-30T11:02:45;23.07;;;12.33;;
27893;SDS011;15240;50.812;4.792;2024-01-30T11:05:12;22.13;;;12.40;;
27893;SDS011;15240;50.812;4.792;2024-01-30T11:07:41;20.83;;;11.23;;
27893;SDS011;15240;50.812;4.792;2024-01-30T11:10:07;19.23;;;11.10;;
27893;SDS011;15240;50.812;4.792;2024-01-30T11:12:38;20.60;;;11.03;;
27893;SDS011;15240;50.812;4.792;2024-01-30T11:15:18;17.77;;;11.30;;
27893;SDS011;15240;50.812;4.792;2024-01-30T11:20:11;26.60;;;12.83;;
27893;SDS011;15240;50.812;4.792;2024-01-30T11:22:37;22.13;;;12.27;;
27893;SDS011;15240;50.812;4.792;2024-01-30T11:25:06;21.33;;;12.73;;
27893;SDS011;15240;50.812;4.792;2024-01-30T11:27:35;21.37;;;12.33;;
27893;SDS011;15240;50.812;4.792;2024-01-30T11:30:02;22.57;;;12.10;;
27893;SDS011;15240;50.812;4.792;2024-01-30T11:32:28;20.13;;;12.50;;
27893;SDS011;15240;50.812;4.792;2024-01-30T11:34:55;16.93;;;11.10;;
27893;SDS011;15240;50.812;4.792;2024-01-30T11:37:21;19.10;;;9.63;;
27893;SDS011;15240;50.812;4.792;2024-01-30T11:39:47;16.90;;;8.60;;
27893;SDS011;15240;50.812;4.792;2024-01-30T11:42:13;16.40;;;9.53;;
27893;SDS011;15240;50.812;4.792;2024-01-30T11:44:40;15.23;;;8.00;;
27893;SDS011;15240;50.812;4.792;2024-01-30T11:47:06;15.37;;;7.23;;
27893;SDS011;15240;50.812;4.792;2024-01-30T11:49:32;13.37;;;6.47;;
27893;SDS011;15240;50.812;4.792;2024-01-30T11:51:59;15.23;;;6.00;;
27893;SDS011;15240;50.812;4.792;2024-01-30T11:54:26;11.77;;;4.70;;
27893;SDS011;15240;50.812;4.792;2024-01-30T11:56:52;9.07;;;4.27;;
27893;SDS011;15240;50.812;4.792;2024-01-30T11:59:18;8.67;;;3.57;;
27893;SDS011;15240;50.812;4.792;2024-01-30T12:01:45;7.07;;;3.23;;
27893;SDS011;15240;50.812;4.792;2024-01-30T12:04:11;8.63;;;3.10;;
27893;SDS011;15240;50.812;4.792;2024-01-30T12:06:37;7.27;;;2.70;;
27893;SDS011;15240;50.812;4.792;2024-01-30T12:09:03;5.37;;;2.53;;
27893;SDS011;15240;50.812;4.792;2024-01-30T12:11:29;8.03;;;2.93;;
27893;SDS011;15240;50.812;4.792;2024-01-30T12:13:57;6.60;;;2.40;;
27893;SDS011;15240;50.812;4.792;2024-01-30T12:16:23;5.30;;;2.17;;
27893;SDS011;15240;50.812;4.792;2024-01-30T12:18:49;5.67;;;2.33;;
27893;SDS011;15240;50.812;4.792;2024-01-30T12:21:18;8.00;;;2.27;;
27893;SDS011;15240;50.812;4.792;2024-01-30T12:23:44;7.93;;;2.30;;
27893;SDS011;15240;50.812;4.792;2024-01-30T12:26:11;3.97;;;1.80;;
27893;SDS011;15240;50.812;4.792;2024-01-30T12:28:37;4.80;;;2.13;;
27893;SDS011;15240;50.812;4.792;2024-01-30T12:31:03;4.97;;;1.70;;
27893;SDS011;15240;50.812;4.792;2024-01-30T12:33:29;5.87;;;1.50;;
27893;SDS011;15240;50.812;4.792;2024-01-30T12:35:56;3.50;;;1.40;;
27893;SDS011;15240;50.812;4.792;2024-01-30T12:38:23;4.17;;;1.20;;
27893;SDS011;15240;50.812;4.792;2024-01-30T12:40:56;3.77;;;1.40;;
27893;SDS011;15240;50.812;4.792;2024-01-30T12:43:26;4.70;;;1.30;;
27893;SDS011;15240;50.812;4.792;2024-01-30T12:45:53;5.47;;;1.30;;
27893;SDS011;15240;50.812;4.792;2024-01-30T12:48:19;3.13;;;0.90;;
27893;SDS011;15240;50.812;4.792;2024-01-30T12:50:45;5.10;;;1.00;;
27893;SDS011;15240;50.812;4.792;2024-01-30T12:53:11;2.83;;;0.97;;
27893;SDS011;15240;50.812;4.792;2024-01-30T12:55:38;3.80;;;1.20;;
27893;SDS011;15240;50.812;4.792;2024-01-30T12:58:04;2.57;;;0.90;;
27893;SDS011;15240;50.812;4.792;2024-01-30T13:00:30;2.43;;;1.00;;
27893;SDS011;15240;50.812;4.792;2024-01-30T13:02:56;1.57;;;0.70;;
27893;SDS011;15240;50.812;4.792;2024-01-30T13:05:22;1.47;;;0.57;;
27893;SDS011;15240;50.812;4.792;2024-01-30T13:07:49;1.17;;;0.57;;
27893;SDS011;15240;50.812;4.792;2024-01-30T13:10:15;4.73;;;0.90;;
27893;SDS011;15240;50.812;4.792;2024-01-30T13:12:41;2.00;;;0.77;;
27893;SDS011;15240;50.812;4.792;2024-01-30T13:15:07;1.90;;;0.70;;
27893;SDS011;15240;50.812;4.792;2024-01-30T13:17:33;1.57;;;0.50;;
27893;SDS011;15240;50.812;4.792;2024-01-30T13:20:01;2.53;;;0.77;;
27893;SDS011;15240;50.812;4.792;2024-01-30T13:22:29;1.87;;;0.60;;
27893;SDS011;15240;50.812;4.792;2024-01-30T13:24:55;1.43;;;0.60;;
27893;SDS011;15240;50.812;4.792;2024-01-30T13:27:21;1.73;;;0.60;;
27893;SDS011;15240;50.812;4.792;2024-01-30T13:29:47;1.47;;;0.57;;
27893;SDS011;15240;50.812;4.792;2024-01-30T13:32:13;2.00;;;0.60;;
27893;SDS011;15240;50.812;4.792;2024-01-30T13:34:40;3.63;;;0.93;;
27893;SDS011;15240;50.812;4.792;2024-01-30T13:37:06;2.23;;;0.70;;
27893;SDS011;15240;50.812;4.792;2024-01-30T13:39:32;2.30;;;0.60;;
27893;SDS011;15240;50.812;4.792;2024-01-30T13:41:58;4.50;;;0.70;;
27893;SDS011;15240;50.812;4.792;2024-01-30T13:44:24;2.07;;;0.70;;
27893;SDS011;15240;50.812;4.792;2024-01-30T13:46:50;2.73;;;0.70;;
27893;SDS011;15240;50.812;4.792;2024-01-30T13:49:16;2.07;;;0.70;;
27893;SDS011;15240;50.812;4.792;2024-01-30T13:51:42;2.07;;;0.70;;
27893;SDS011;15240;50.812;4.792;2024-01-30T13:54:08;1.77;;;0.60;;
27893;SDS011;15240;50.812;4.792;2024-01-30T13:56:34;2.60;;;0.70;;
27893;SDS011;15240;50.812;4.792;2024-01-30T13:59:01;1.97;;;0.63;;
27893;SDS011;15240;50.812;4.792;2024-01-30T14:01:30;4.03;;;0.80;;
27893;SDS011;15240;50.812;4.792;2024-01-30T14:03:56;2.33;;;0.73;;
27893;SDS011;15240;50.812;4.792;2024-01-30T14:06:22;4.47;;;0.90;;
27893;SDS011;15240;50.812;4.792;2024-01-30T14:08:48;4.13;;;0.70;;
27893;SDS011;15240;50.812;4.792;2024-01-30T14:11:14;2.67;;;0.70;;
27893;SDS011;15240;50.812;4.792;2024-01-30T14:13:41;4.20;;;0.87;;
27893;SDS011;15240;50.812;4.792;2024-01-30T14:16:07;2.43;;;0.80;;
27893;SDS011;15240;50.812;4.792;2024-01-30T14:18:33;5.43;;;1.00;;
27893;SDS011;15240;50.812;4.792;2024-01-30T14:20:59;8.43;;;0.90;;
27893;SDS011;15240;50.812;4.792;2024-01-30T14:23:25;4.63;;;1.00;;
27893;SDS011;15240;50.812;4.792;2024-01-30T14:25:51;3.10;;;0.63;;
27893;SDS011;15240;50.812;4.792;2024-01-30T14:28:18;5.37;;;0.70;;
27893;SDS011;15240;50.812;4.792;2024-01-30T14:30:44;4.00;;;1.10;;
27893;SDS011;15240;50.812;4.792;2024-01-30T14:33:10;2.70;;;0.90;;
27893;SDS011;15240;50.812;4.792;2024-01-30T14:35:36;4.67;;;0.83;;
27893;SDS011;15240;50.812;4.792;2024-01-30T14:38:02;6.27;;;0.90;;